Time;durP1;ratioP1;P1;durP2;ratioP2;P2;SDS_P1;SDS_P2;PMS_P1;PMS_P2;Temp;Humidity;BMP_temperature;BMP_pressure;BME280_temperature;BME280_humidity;BME280_pressure;Samples;Min_cycle;Max_cycle;Signal;HPM_P1;HPM_P2
2022/04/13 00:00:16;;;;;;;29.50;10.63;;;;;;;1.88;78.22;101810.22;4980931;28;20101;-58
2022/04/13 00:02:44;;;;;;;27.20;10.70;;;;;;;1.87;77.86;101811.00;4981974;28;20062;-55
2022/04/13 00:05:12;;;;;;;24.27;11.02;;;;;;;1.84;77.70;101805.78;4979779;28;20050;-55
2022/04/13 00:07:40;;;;;;;25.95;10.63;;;;;;;1.80;77.99;101809.00;4984054;28;20061;-58
2022/04/13 00:10:08;;;;;;;28.67;10.88;;;;;;;1.77;77.94;101808.00;4981124;28;20133;-56
2022/04/13 00:12:37;;;;;;;26.65;11.32;;;;;;;1.76;78.12;101806.25;4983591;28;20185;-56
2022/04/13 00:15:08;;;;;;;27.88;10.82;;;;;;;1.76;78.47;101802.00;4981434;28;20064;-57
2022/04/13 00:17:37;;;;;;;24.20;9.50;;;;;;;1.77;79.01;101802.88;4940743;28;1179858;-56
2022/04/13 00:20:05;;;;;;;24.00;8.85;;;;;;;1.76;78.70;101802.00;4980594;28;20049;-57
2022/04/13 00:22:33;;;;;;;22.45;8.90;;;;;;;1.73;78.31;101794.19;4984858;28;20057;-58
2022/04/13 00:25:01;;;;;;;28.92;10.43;;;;;;;1.72;78.40;101796.69;4985737;28;20109;-58
2022/04/13 00:27:29;;;;;;;23.33;10.15;;;;;;;1.70;78.16;101794.06;4980740;28;20046;-57
2022/04/13 00:29:58;;;;;;;23.15;10.27;;;;;;;1.67;78.54;101791.38;4982655;28;20065;-55
2022/04/13 00:32:25;;;;;;;26.05;10.15;;;;;;;1.67;78.89;101791.38;4983014;28;20414;-55
2022/04/13 00:34:54;;;;;;;17.80;8.15;;;;;;;1.67;78.72;101788.81;4982384;28;20063;-58
2022/04/13 00:37:22;;;;;;;25.05;8.95;;;;;;;1.66;79.18;101789.63;4983534;28;20054;-54
2022/04/13 00:39:49;;;;;;;22.90;10.02;;;;;;;1.64;78.83;101775.91;4986987;28;20452;-56
2022/04/13 00:42:17;;;;;;;17.23;7.85;;;;;;;1.61;78.78;101780.88;4983186;28;20069;-55
2022/04/13 00:44:45;;;;;;;18.52;8.40;;;;;;;1.60;78.84;101774.03;4984044;28;20136;-58
2022/04/13 00:47:15;;;;;;;16.85;7.90;;;;;;;1.58;79.33;101767.97;4982125;28;20047;-57
2022/04/13 00:49:43;;;;;;;18.33;8.02;;;;;;;1.57;79.24;101773.88;4979991;28;20043;-58
2022/04/13 00:52:12;;;;;;;22.33;8.85;;;;;;;1.56;79.29;101767.91;4982632;28;20661;-55
2022/04/13 00:54:42;;;;;;;21.48;8.48;;;;;;;1.54;79.65;101748.16;4984344;28;20139;-55
2022/04/13 00:57:11;;;;;;;20.70;7.43;;;;;;;1.51;79.55;101742.91;4983505;28;20077;-56
2022/04/13 00:59:43;;;;;;;19.02;7.97;;;;;;;1.45;79.49;101743.53;4985689;28;20472;-53
2022/04/13 01:02:14;;;;;;;17.10;7.45;;;;;;;1.45;79.50;101755.44;4979380;28;20438;-54
2022/04/13 01:04:51;;;;;;;21.00;9.02;;;;;;;1.43;79.22;101750.25;4986141;28;20055;-55
2022/04/13 01:07:19;;;;;;;19.15;7.70;;;;;;;1.43;79.57;101764.69;4982382;28;20046;-54
2022/04/13 01:09:47;;;;;;;20.48;7.70;;;;;;;1.39;79.09;101757.72;4983447;28;20475;-56
2022/04/13 01:12:15;;;;;;;27.13;8.70;;;;;;;1.36;79.06;101757.56;4984234;28;20051;-54
2022/04/13 01:14:43;;;;;;;20.55;8.23;;;;;;;1.34;78.88;101767.72;4983408;28;20054;-57
2022/04/13 01:17:10;;;;;;;25.08;9.05;;;;;;;1.32;79.31;101761.66;4982846;28;20055;-57
2022/04/13 01:19:40;;;;;;;22.63;8.65;;;;;;;1.30;79.32;101767.50;4981038;28;20505;-58
2022/04/13 01:22:21;;;;;;;19.15;8.82;;;;;;;1.26;79.09;101769.94;4983223;28;20097;-57
2022/04/13 01:24:50;;;;;;;25.45;9.50;;;;;;;1.23;78.99;101786.81;4982120;28;20396;-57
2022/04/13 01:27:18;;;;;;;21.00;8.52;;;;;;;1.21;78.76;101791.84;4986834;28;20065;-57
2022/04/13 01:29:48;;;;;;;17.20;7.50;;;;;;;1.18;79.20;101794.25;4979994;28;20399;-57
2022/04/13 01:32:16;;;;;;;23.23;8.55;;;;;;;1.17;79.35;101795.06;4981731;28;20113;-57
2022/04/13 01:34:50;;;;;;;21.80;8.13;;;;;;;1.14;79.65;101797.47;4982775;28;20042;-57
2022/04/13 01:37:21;;;;;;;16.88;6.90;;;;;;;1.13;79.58;101793.16;4980870;28;20384;-57
2022/04/13 01:39:49;;;;;;;18.25;8.02;;;;;;;1.11;79.58;101792.22;4983537;28;20052;-56
2022/04/13 01:42:16;;;;;;;19.17;7.85;;;;;;;1.09;79.68;101791.28;4983519;28;20050;-55
2022/04/13 01:44:44;;;;;;;16.27;7.47;;;;;;;1.08;79.52;101791.19;4983947;28;20055;-57
2022/04/13 01:47:12;;;;;;;18.83;7.78;;;;;;;1.08;79.86;101799.75;4984054;28;20054;-57
2022/04/13 01:49:39;;;;;;;17.52;8.25;;;;;;;1.06;80.07;101797.91;4980816;28;20042;-58
2022/04/13 01:52:09;;;;;;;23.35;8.82;;;;;;;1.04;79.98;101791.84;4981167;28;20460;-57
2022/04/13 01:54:38;;;;;;;19.25;7.82;;;;;;;1.02;80.07;101786.66;4981131;28;20050;-58
2022/04/13 01:57:06;;;;;;;17.63;7.00;;;;;;;1.02;80.07;101801.97;4978829;28;20050;-57
2022/04/13 01:59:34;;;;;;;19.75;8.60;;;;;;;1.01;80.33;101794.25;4981510;28;20050;-54
2022/04/13 02:02:04;;;;;;;16.85;6.70;;;;;;;0.99;80.38;101799.28;4980161;28;20748;-56
2022/04/13 02:04:32;;;;;;;20.17;8.20;;;;;;;0.97;80.85;101798.31;4984058;28;20046;-57
2022/04/13 02:07:00;;;;;;;19.85;7.20;;;;;;;0.97;81.10;101798.31;4982390;28;20065;-54
2022/04/13 02:09:27;;;;;;;17.13;7.25;;;;;;;0.97;81.25;101803.44;4981408;28;20361;-59
2022/04/13 02:11:57;;;;;;;22.40;8.98;;;;;;;0.97;81.74;101800.88;4984174;28;20057;-60
2022/04/13 02:14:24;;;;;;;24.63;10.32;;;;;;;0.97;81.87;101798.31;4985069;28;20463;-60
2022/04/13 02:16:52;;;;;;;20.35;8.90;;;;;;;0.98;82.01;101805.19;4981599;28;20058;-60
2022/04/13 02:19:22;;;;;;;16.35;7.43;;;;;;;1.00;82.02;101802.69;4984072;28;20058;-60
2022/04/13 02:21:49;;;;;;;18.55;7.85;;;;;;;1.02;81.97;101798.53;4984129;28;20482;-59
2022/04/13 02:24:15;;;;;;;14.32;8.40;;;;;;;1.03;81.80;101808.81;4982877;28;20050;-60
2022/04/13 02:26:43;;;;;;;18.80;8.27;;;;;;;1.04;81.83;101810.63;4983162;28;20066;-60
2022/04/13 02:29:12;;;;;;;20.40;8.02;;;;;;;1.05;81.53;101807.25;4979875;28;20051;-60
2022/04/13 02:31:40;;;;;;;18.17;7.15;;;;;;;1.04;81.16;101815.72;4985077;28;20065;-59
2022/04/13 02:34:07;;;;;;;19.65;7.72;;;;;;;1.01;80.85;101818.09;4976711;28;20058;-59
2022/04/13 02:36:35;;;;;;;13.43;7.20;;;;;;;1.00;80.75;101824.00;4990404;28;20054;-60
2022/04/13 02:39:02;;;;;;;19.38;7.38;;;;;;;1.00;80.96;101818.91;4981561;28;20051;-60
2022/04/13 02:41:32;;;;;;;17.45;8.07;;;;;;;0.98;81.08;101817.94;4990029;28;20085;-59
2022/04/13 02:43:59;;;;;;;16.52;7.53;;;;;;;0.96;80.73;101819.56;4984766;28;20058;-58
2022/04/13 02:46:28;;;;;;;18.15;8.13;;;;;;;0.94;81.07;101816.06;4991473;28;20065;-60
2022/04/13 02:48:56;;;;;;;18.58;7.75;;;;;;;0.93;81.58;101816.84;4980874;28;20483;-60
2022/04/13 02:51:23;;;;;;;19.17;8.18;;;;;;;0.90;81.29;101821.81;4991283;28;20051;-60
2022/04/13 02:53:51;;;;;;;15.95;7.10;;;;;;;0.89;81.51;101809.84;4980951;28;20046;-60
2022/04/13 02:56:21;;;;;;;20.75;7.97;;;;;;;0.88;81.33;101819.19;4991166;28;20061;-60
2022/04/13 02:58:49;;;;;;;14.18;6.78;;;;;;;0.88;81.50;101818.31;4980291;28;20074;-59
2022/04/13 03:01:17;;;;;;;15.35;7.97;;;;;;;0.86;81.16;101819.91;4985552;28;20059;-58
2022/04/13 03:03:47;;;;;;;17.08;7.80;;;;;;;0.84;80.91;101821.53;4995685;28;20058;-60
2022/04/13 03:06:14;;;;;;;17.23;6.72;;;;;;;0.81;80.82;101822.25;4994577;28;20055;-59
2022/04/13 03:08:42;;;;;;;16.05;6.90;;;;;;;0.80;81.25;101814.53;4987403;28;20050;-60
2022/04/13 03:11:10;;;;;;;16.73;7.25;;;;;;;0.78;81.01;101811.91;4993245;28;20078;-60
2022/04/13 03:13:38;;;;;;;15.93;7.88;;;;;;;0.76;81.42;101812.63;4977012;28;20470;-60
2022/04/13 03:16:06;;;;;;;21.92;7.82;;;;;;;0.74;81.44;101814.22;4977684;28;20062;-59
2022/04/13 03:18:34;;;;;;;15.32;6.65;;;;;;;0.73;81.44;101809.94;4985671;28;20047;-60
2022/04/13 03:21:03;;;;;;;17.10;6.80;;;;;;;0.72;81.54;101805.63;4989082;28;20050;-61
2022/04/13 03:23:30;;;;;;;15.55;6.93;;;;;;;0.72;81.58;101815.84;4992039;28;20046;-60
2022/04/13 03:25:58;;;;;;;17.98;6.93;;;;;;;0.68;81.04;101813.94;4986797;28;20061;-58
2022/04/13 03:28:25;;;;;;;19.02;7.78;;;;;;;0.63;81.08;101812.03;4983123;28;20061;-61
2022/04/13 03:30:53;;;;;;;16.77;6.68;;;;;;;0.62;81.14;101820.50;4982154;28;20084;-59
2022/04/13 03:33:21;;;;;;;16.05;6.90;;;;;;;0.61;81.24;101816.19;4986119;28;20063;-59
2022/04/13 03:35:48;;;;;;;13.05;6.60;;;;;;;0.59;80.94;101815.25;4988476;28;20046;-61
2022/04/13 03:38:15;;;;;;;22.92;6.75;;;;;;;0.57;81.08;101806.63;4979109;28;20051;-61
2022/04/13 03:40:43;;;;;;;16.38;7.10;;;;;;;0.56;81.04;101799.78;4990640;28;20559;-60
2022/04/13 03:43:13;;;;;;;19.52;7.05;;;;;;;0.56;81.41;101799.78;4985356;28;20391;-60
2022/04/13 03:45:42;;;;;;;19.23;7.38;;;;;;;0.55;81.78;101792.94;4991770;28;20050;-60
2022/04/13 03:48:10;;;;;;;15.52;6.97;;;;;;;0.55;82.07;101792.94;4982526;28;20050;-61
2022/04/13 03:50:38;;;;;;;19.25;7.55;;;;;;;0.57;81.71;101795.56;4983635;28;20446;-60
2022/04/13 03:53:05;;;;;;;24.88;8.70;;;;;;;0.57;81.58;101795.56;4982267;28;20043;-60
2022/04/13 03:55:34;;;;;;;22.42;8.02;;;;;;;0.56;81.70;101793.81;4988024;28;20680;-60
2022/04/13 03:58:00;;;;;;;22.38;8.35;;;;;;;0.55;81.95;101798.03;4984079;28;20050;-60
2022/04/13 04:00:28;;;;;;;15.90;7.40;;;;;;;0.58;82.14;101807.50;4985405;28;20465;-59
2022/04/13 04:02:55;;;;;;;18.30;7.30;;;;;;;0.58;82.33;101805.84;4982236;28;20407;-61
2022/04/13 04:05:24;;;;;;;19.38;8.18;;;;;;;0.60;81.84;101806.78;4986983;28;20105;-61
2022/04/13 04:07:50;;;;;;;27.48;8.48;;;;;;;0.61;81.76;101813.63;4982388;28;20054;-60
2022/04/13 04:10:18;;;;;;;24.92;8.90;;;;;;;0.63;81.69;101817.16;4982514;28;20042;-61
2022/04/13 04:12:48;;;;;;;20.88;8.15;;;;;;;0.68;81.46;101819.03;4984557;28;20106;-60
2022/04/13 04:15:16;;;;;;;29.45;9.70;;;;;;;0.73;81.87;101832.91;4982413;28;20058;-61
2022/04/13 04:17:43;;;;;;;23.48;8.63;;;;;;;0.75;81.50;101832.16;4981695;28;20065;-60
2022/04/13 04:20:10;;;;;;;27.92;9.00;;;;;;;0.79;81.11;101825.53;4983149;28;20061;-60
2022/04/13 04:22:37;;;;;;;24.23;9.50;;;;;;;0.83;81.55;101828.31;4984987;28;20478;-59
2022/04/13 04:25:06;;;;;;;19.38;10.05;;;;;;;0.89;81.78;101830.28;4987085;28;20050;-59
2022/04/13 04:27:34;;;;;;;28.95;10.32;;;;;;;0.94;81.67;101823.72;4983359;28;20051;-59
2022/04/13 04:30:02;;;;;;;25.70;11.02;;;;;;;1.00;81.65;101824.00;4987990;28;20065;-59
2022/04/13 04:32:30;;;;;;;24.20;11.23;;;;;;;1.06;81.77;101826.88;4978828;28;20050;-57
2022/04/13 04:34:56;;;;;;;28.65;12.30;;;;;;;1.13;82.08;101833.16;4985550;28;20090;-59
2022/04/13 04:37:24;;;;;;;22.67;9.82;;;;;;;1.21;82.18;101835.25;4983800;28;20058;-61
2022/04/13 04:39:51;;;;;;;25.30;9.40;;;;;;;1.34;82.42;101835.81;4995364;28;20061;-61
2022/04/13 04:42:17;;;;;;;25.02;9.35;;;;;;;1.57;83.01;101830.09;4995511;28;20058;-60
2022/04/13 04:44:46;;;;;;;20.73;8.50;;;;;;;1.89;83.46;101837.53;4995503;28;20133;-59
2022/04/13 04:47:13;;;;;;;23.83;9.68;;;;;;;2.32;83.24;101847.06;4985469;28;20137;-60
2022/04/13 04:49:42;;;;;;;24.95;9.70;;;;;;;2.79;82.50;101859.31;4995362;28;20050;-60
2022/04/13 04:52:10;;;;;;;26.15;8.98;;;;;;;3.27;81.73;101856.09;4975861;28;20093;-60
2022/04/13 04:54:37;;;;;;;20.42;8.35;;;;;;;3.75;80.48;101860.53;4982230;28;20054;-61
2022/04/13 04:57:04;;;;;;;20.63;8.15;;;;;;;4.19;79.16;101857.88;4986308;28;20057;-61
2022/04/13 04:59:31;;;;;;;25.35;8.80;;;;;;;4.61;77.74;101856.75;4986711;28;20367;-61
2022/04/13 05:01:58;;;;;;;21.80;9.02;;;;;;;4.93;76.49;101855.25;4980164;28;20065;-61
2022/04/13 05:04:27;;;;;;;21.98;9.10;;;;;;;5.24;75.88;101858.84;4993663;28;20061;-62
2022/04/13 05:06:57;;;;;;;31.17;10.20;;;;;;;5.56;74.84;101858.09;4993728;28;20072;-62
2022/04/13 05:09:25;;;;;;;22.17;8.93;;;;;;;5.87;73.08;101856.44;4982647;28;20134;-62
2022/04/13 05:11:52;;;;;;;28.95;9.43;;;;;;;6.23;72.43;101852.34;4983123;28;20053;-60
2022/04/13 05:14:20;;;;;;;20.42;8.40;;;;;;;6.66;70.87;101858.63;4975461;28;20065;-60
2022/04/13 05:16:48;;;;;;;30.30;9.77;;;;;;;7.14;69.63;101860.66;4981351;28;20058;-60
2022/04/13 05:19:16;;;;;;;22.00;10.13;;;;;;;7.62;67.38;101858.34;4975485;28;20057;-61
2022/04/13 05:21:44;;;;;;;23.20;8.73;;;;;;;8.10;66.18;101855.91;4984079;28;20061;-61
2022/04/13 05:24:12;;;;;;;18.27;8.57;;;;;;;8.50;65.00;101848.94;4994527;28;20050;-61
2022/04/13 05:26:40;;;;;;;27.55;8.25;;;;;;;8.88;64.40;101851.34;4991736;28;20054;-61
2022/04/13 05:29:06;;;;;;;21.50;9.40;;;;;;;9.21;63.18;101851.84;4986103;28;20104;-60
2022/04/13 05:31:32;;;;;;;24.02;8.70;;;;;;;9.59;62.53;101854.13;4992042;28;20055;-61
2022/04/13 05:33:59;;;;;;;30.80;9.40;;;;;;;9.99;61.47;101858.97;4994591;28;20054;-61
2022/04/13 05:36:29;;;;;;;19.75;8.88;;;;;;;10.41;59.29;101858.63;4993187;28;20535;-61
2022/04/13 05:38:58;;;;;;;22.92;8.18;;;;;;;10.82;58.58;101862.44;4994005;28;20436;-62
2022/04/13 05:41:26;;;;;;;15.32;7.47;;;;;;;11.32;57.64;101855.91;4988435;28;20058;-61
2022/04/13 05:43:53;;;;;;;22.90;8.23;;;;;;;11.87;56.19;101852.78;4974632;28;20411;-62
2022/04/13 05:46:21;;;;;;;18.92;8.27;;;;;;;12.43;54.47;101852.94;4974484;28;20491;-61
2022/04/13 05:48:49;;;;;;;16.52;7.47;;;;;;;12.87;51.31;101849.53;4974735;28;20057;-59
2022/04/13 05:51:15;;;;;;;20.23;7.72;;;;;;;13.36;49.02;101854.72;4974938;28;20050;-61
2022/04/13 05:53:43;;;;;;;16.85;8.18;;;;;;;13.81;47.03;101848.53;4974570;28;20051;-62
2022/04/13 05:56:12;;;;;;;15.75;8.18;;;;;;;14.31;46.16;101855.25;4978362;28;20049;-62
2022/04/13 05:58:41;;;;;;;16.77;8.73;;;;;;;14.77;44.75;101872.38;4977813;28;20063;-61
2022/04/13 06:01:10;;;;;;;15.60;8.25;;;;;;;15.35;43.95;101871.88;4994141;28;20078;-61
2022/04/13 06:03:38;;;;;;;19.73;8.68;;;;;;;15.91;41.73;101877.38;4994005;28;20054;-61
2022/04/13 06:06:05;;;;;;;13.75;8.00;;;;;;;16.36;39.50;101874.19;4985023;28;20058;-59
2022/04/13 06:08:32;;;;;;;17.15;8.98;;;;;;;16.60;38.64;101869.47;4993457;28;20050;-62
2022/04/13 06:10:58;;;;;;;14.73;8.73;;;;;;;16.61;37.81;101872.06;4994099;28;20046;-62
2022/04/13 06:13:32;;;;;;;18.48;9.00;;;;;;;16.76;36.90;101881.47;4993943;28;20058;-62
2022/04/13 06:15:59;;;;;;;11.87;7.30;;;;;;;16.84;38.03;101874.38;4993576;28;20061;-62
2022/04/13 06:18:26;;;;;;;15.02;8.20;;;;;;;17.13;37.58;101875.63;4993947;28;20054;-62
2022/04/13 06:20:54;;;;;;;14.93;8.23;;;;;;;17.25;35.50;101871.06;4993597;28;20470;-62
2022/04/13 06:23:22;;;;;;;13.93;7.20;;;;;;;17.15;34.11;101869.47;4993977;28;20062;-62
2022/04/13 06:25:50;;;;;;;12.35;7.35;;;;;;;16.93;34.04;101873.34;4993492;28;20061;-62
2022/04/13 06:28:17;;;;;;;12.70;8.13;;;;;;;16.96;33.88;101868.91;4993680;28;20514;-62
2022/04/13 06:30:54;;;;;;;11.85;7.13;;;;;;;17.18;34.03;101852.84;4993356;28;20061;-62
2022/04/13 06:33:20;;;;;;;15.77;8.18;;;;;;;17.40;33.51;101842.81;4992746;28;20058;-62
2022/04/13 06:35:48;;;;;;;23.23;9.63;;;;;;;17.43;34.55;101856.75;4993079;28;20058;-61
2022/04/13 06:38:15;;;;;;;18.08;10.10;;;;;;;17.35;35.35;101861.25;4992795;28;20054;-60
2022/04/13 06:40:42;;;;;;;21.65;11.05;;;;;;;17.23;35.69;101867.59;4993244;28;20061;-60
2022/04/13 06:43:10;;;;;;;21.75;10.90;;;;;;;16.82;36.27;101868.28;4993858;28;20073;-61
2022/04/13 06:45:37;;;;;;;17.55;10.40;;;;;;;16.44;36.57;101860.97;4993570;28;20075;-61
2022/04/13 06:48:07;;;;;;;21.60;12.60;;;;;;;15.98;37.22;101869.44;4990073;28;20463;-61
2022/04/13 06:50:37;;;;;;;21.77;12.38;;;;;;;15.46;37.68;101874.38;4982215;28;20082;-62
2022/04/13 06:53:04;;;;;;;22.73;12.13;;;;;;;14.90;38.22;101878.34;4993386;28;20356;-61
2022/04/13 06:55:30;;;;;;;22.23;12.25;;;;;;;14.49;38.58;101874.28;4988258;28;20697;-61
2022/04/13 06:57:59;;;;;;;18.67;11.73;;;;;;;14.08;38.99;101878.84;4973688;28;20055;-59
2022/04/13 07:00:27;;;;;;;20.42;11.38;;;;;;;13.68;38.92;101885.94;4974014;28;20047;-59
2022/04/13 07:02:57;;;;;;;19.15;10.55;;;;;;;13.19;39.50;101888.63;4977773;28;20061;-60
2022/04/13 07:05:25;;;;;;;25.73;11.57;;;;;;;12.76;40.26;101885.97;4987933;28;20054;-59
2022/04/13 07:07:53;;;;;;;26.10;12.45;;;;;;;12.40;41.03;101888.47;4982291;28;20621;-60
2022/04/13 07:10:20;;;;;;;23.00;12.05;;;;;;;12.04;41.57;101879.72;4973921;28;20051;-61
2022/04/13 07:12:50;;;;;;;21.98;12.18;;;;;;;11.70;42.71;101878.66;4987012;28;20082;-61
2022/04/13 07:15:18;;;;;;;22.05;11.70;;;;;;;11.36;42.73;101883.63;4984508;28;20082;-62
2022/04/13 07:17:46;;;;;;;20.45;12.35;;;;;;;11.07;43.70;101880.84;4983802;28;20173;-61
2022/04/13 07:20:16;;;;;;;24.85;12.68;;;;;;;10.77;44.26;101890.94;4979380;28;20043;-61
2022/04/13 07:22:48;;;;;;;22.20;10.95;;;;;;;10.53;44.64;101876.00;4993972;28;20423;-61
2022/04/13 07:25:17;;;;;;;25.45;12.10;;;;;;;10.35;45.26;101881.00;4984218;28;20054;-61
2022/04/13 07:27:46;;;;;;;24.92;11.80;;;;;;;10.16;45.42;101885.06;4988258;28;20054;-61
2022/04/13 07:30:14;;;;;;;21.13;12.32;;;;;;;10.01;46.20;101884.91;4983946;28;20475;-59
2022/04/13 07:32:45;;;;;;;25.00;12.65;;;;;;;9.92;47.11;101888.25;4987564;28;20061;-60
2022/04/13 07:35:12;;;;;;;27.95;12.63;;;;;;;9.82;46.97;101883.75;4996262;28;20100;-60
2022/04/13 07:37:40;;;;;;;33.95;14.10;;;;;;;9.76;47.39;101883.69;4990063;28;20050;-61
2022/04/13 07:40:17;;;;;;;22.38;12.15;;;;;;;9.77;47.89;101890.59;4993125;28;20116;-61
2022/04/13 07:42:43;;;;;;;29.00;13.82;;;;;;;9.74;48.68;101886.25;4994274;28;20054;-59
2022/04/13 07:45:10;;;;;;;23.40;12.65;;;;;;;9.73;48.57;101894.00;4995959;28;20077;-61
2022/04/13 07:47:38;;;;;;;21.30;12.35;;;;;;;9.75;48.22;101892.31;4996506;28;20114;-61
2022/04/13 07:50:06;;;;;;;27.15;13.40;;;;;;;9.79;48.12;101899.25;4985186;28;20043;-61
2022/04/13 07:52:35;;;;;;;29.65;13.48;;;;;;;9.77;48.45;101890.59;4976836;28;20086;-61
2022/04/13 07:55:01;;;;;;;24.48;13.90;;;;;;;9.76;48.36;101901.81;4990566;28;20061;-61
2022/04/13 07:57:32;;;;;;;25.42;11.55;;;;;;;9.76;49.03;101894.03;4983347;28;20054;-61
2022/04/13 07:59:58;;;;;;;22.48;11.23;;;;;;;9.73;49.11;101894.88;4996373;28;20125;-60
2022/04/13 08:02:27;;;;;;;22.80;12.20;;;;;;;9.72;48.78;101898.31;4995655;28;20058;-61
2022/04/13 08:04:56;;;;;;;19.60;10.10;;;;;;;9.79;48.97;101894.09;4990253;28;20137;-60
2022/04/13 08:07:24;;;;;;;21.85;11.30;;;;;;;9.87;49.28;101887.28;4992333;28;20054;-61
2022/04/13 08:09:50;;;;;;;20.60;10.70;;;;;;;9.89;49.08;101888.19;4986722;28;20531;-60
2022/04/13 08:12:17;;;;;;;20.40;11.20;;;;;;;9.91;48.44;101868.38;4986301;28;20054;-59
2022/04/13 08:14:49;;;;;;;21.65;10.77;;;;;;;9.99;48.83;101876.22;4985384;28;20129;-59
2022/04/13 08:17:17;;;;;;;23.35;9.57;;;;;;;10.07;48.63;101875.47;4985422;28;20051;-59
2022/04/13 08:19:45;;;;;;;20.48;10.45;;;;;;;10.18;48.68;101878.19;4992984;28;20069;-61
2022/04/13 08:22:13;;;;;;;17.25;10.20;;;;;;;10.13;48.01;101872.09;4989304;28;20054;-61
2022/04/13 08:24:42;;;;;;;16.33;9.07;;;;;;;10.21;48.60;101877.38;4995530;28;20062;-61
2022/04/13 08:27:10;;;;;;;22.15;11.27;;;;;;;10.24;48.36;101878.28;4985887;28;20054;-61
2022/04/13 08:29:39;;;;;;;22.42;11.45;;;;;;;10.29;48.07;101880.91;4985560;28;20053;-60
2022/04/13 08:32:12;;;;;;;19.33;11.27;;;;;;;10.39;48.10;101887.94;4992114;28;20411;-61
2022/04/13 08:34:40;;;;;;;25.65;12.25;;;;;;;10.43;47.99;101885.44;4989079;28;20471;-61
2022/04/13 08:37:08;;;;;;;23.35;13.48;;;;;;;10.51;48.21;101880.31;4995664;28;20058;-61
2022/04/13 08:39:35;;;;;;;24.65;12.10;;;;;;;10.57;48.04;101874.31;4995683;28;20065;-62
2022/04/13 08:42:12;;;;;;;21.02;12.02;;;;;;;10.59;48.15;101885.56;4986751;28;20051;-61
2022/04/13 08:44:52;;;;;;;19.17;12.18;;;;;;;10.67;47.96;101884.78;4995453;28;20074;-61
2022/04/13 08:47:21;;;;;;;22.30;12.15;;;;;;;10.78;47.79;101884.03;4995562;28;20050;-61
2022/04/13 08:49:52;;;;;;;21.73;12.23;;;;;;;10.78;48.11;101881.44;4995122;28;20499;-61
2022/04/13 08:52:22;;;;;;;21.98;11.88;;;;;;;10.90;47.65;101881.53;4995566;28;20061;-61
2022/04/13 08:55:03;;;;;;;25.45;13.25;;;;;;;10.95;47.75;101890.25;4995326;28;20081;-61
2022/04/13 08:57:35;;;;;;;22.60;12.30;;;;;;;11.00;47.84;101883.38;4989464;28;20108;-61
2022/04/13 09:00:06;;;;;;;23.80;12.35;;;;;;;11.18;46.87;101883.50;4989816;28;20423;-61
2022/04/13 09:02:57;;;;;;;24.00;13.02;;;;;;;11.32;46.39;101881.88;4995015;28;20051;-60
2022/04/13 09:05:27;;;;;;;19.23;11.55;;;;;;;11.45;46.54;101872.47;4995133;28;20082;-61
2022/04/13 09:08:12;;;;;;;19.15;11.38;;;;;;;11.59;47.15;101872.53;4993387;28;20382;-60
2022/04/13 09:10:41;;;;;;;19.35;10.80;;;;;;;11.73;46.41;101877.78;4993729;28;20050;-61
2022/04/13 09:13:10;;;;;;;22.08;11.02;;;;;;;11.88;45.74;101873.56;4994697;28;20078;-61
2022/04/13 09:15:38;;;;;;;22.05;12.48;;;;;;;11.93;45.27;101864.06;4994558;28;20088;-60
2022/04/13 09:18:07;;;;;;;23.17;12.52;;;;;;;12.03;45.41;101877.13;4994530;28;20403;-61
2022/04/13 09:20:34;;;;;;;20.70;11.57;;;;;;;12.08;45.28;101871.06;4994668;28;20475;-60
2022/04/13 09:23:01;;;;;;;22.80;12.27;;;;;;;12.18;44.91;101875.44;4994588;28;20050;-61
2022/04/13 09:25:30;;;;;;;21.55;11.93;;;;;;;12.22;44.65;101878.91;4994876;28;20055;-61
2022/04/13 09:27:59;;;;;;;17.92;11.23;;;;;;;12.28;44.00;101871.13;4990664;28;20480;-61
2022/04/13 09:30:29;;;;;;;19.83;11.95;;;;;;;12.30;44.11;101864.19;4980019;28;20396;-61
2022/04/13 09:32:59;;;;;;;21.17;11.63;;;;;;;12.36;44.08;101869.41;4975716;28;20057;-60
2022/04/13 09:35:31;;;;;;;17.70;11.30;;;;;;;12.47;43.76;101854.69;4989196;28;20061;-61
2022/04/13 09:38:02;;;;;;;21.83;12.18;;;;;;;12.62;43.46;101856.47;4994169;28;20061;-61
2022/04/13 09:40:31;;;;;;;21.85;12.45;;;;;;;12.75;43.04;101857.34;4994206;28;20050;-61
2022/04/13 09:43:10;;;;;;;23.52;11.27;;;;;;;12.83;42.52;101853.00;4994054;28;20085;-59
2022/04/13 09:45:41;;;;;;;24.52;12.32;;;;;;;12.88;42.35;101851.28;4993958;28;20054;-60
2022/04/13 09:48:11;;;;;;;18.58;11.60;;;;;;;12.95;42.49;101842.59;4990457;28;20055;-61
2022/04/13 09:50:41;;;;;;;24.65;14.05;;;;;;;13.04;42.10;101842.63;4977366;28;20050;-60
2022/04/13 09:53:10;;;;;;;23.23;13.18;;;;;;;13.10;42.03;101842.59;4976792;28;20062;-60
2022/04/13 09:55:42;;;;;;;23.25;12.23;;;;;;;13.21;41.80;101832.19;4980019;28;20065;-60
2022/04/13 09:58:12;;;;;;;21.60;12.70;;;;;;;13.35;41.39;101829.56;4992471;28;20051;-60
2022/04/13 10:00:44;;;;;;;17.52;11.32;;;;;;;13.47;41.12;101826.91;4986009;28;20051;-59
2022/04/13 10:03:14;;;;;;;18.25;10.90;;;;;;;13.63;40.38;101826.03;4978486;28;20047;-61
2022/04/13 10:05:47;;;;;;;19.38;11.43;;;;;;;13.82;39.64;101829.41;4978965;28;20051;-61
2022/04/13 10:08:18;;;;;;;18.08;10.27;;;;;;;14.03;39.08;101818.88;4985715;28;20061;-61
2022/04/13 10:10:49;;;;;;;17.50;9.77;;;;;;;14.30;37.94;101823.09;4993949;28;20054;-60
2022/04/13 10:13:33;;;;;;;15.77;9.48;;;;;;;14.65;35.03;101824.63;4993966;28;20050;-59
2022/04/13 10:16:03;;;;;;;18.17;9.98;;;;;;;14.80;35.29;101816.66;4974129;28;20451;-60
2022/04/13 10:18:56;;;;;;;14.98;9.05;;;;;;;15.02;34.18;101799.91;4974723;28;20082;-59
2022/04/13 10:21:53;;;;;;;13.27;7.72;;;;;;;15.11;32.47;101812.91;4980779;28;20283;-59
2022/04/13 10:24:28;;;;;;;15.75;7.55;;;;;;;15.20;33.68;101808.47;4993977;28;20054;-59
2022/04/13 10:27:01;;;;;;;15.15;7.40;;;;;;;15.38;32.66;101797.81;4993889;28;20079;-59
2022/04/13 10:29:29;;;;;;;12.73;6.63;;;;;;;15.56;32.90;101799.34;4993724;28;20069;-60
2022/04/13 10:32:17;;;;;;;14.73;7.15;;;;;;;15.72;31.89;101799.19;4993476;28;20046;-59
2022/04/13 10:34:45;;;;;;;13.25;6.55;;;;;;;15.84;31.81;101799.91;4987678;28;20486;-60
2022/04/13 10:37:16;;;;;;;12.35;6.50;;;;;;;15.92;30.59;101796.31;4993771;28;20073;-61
2022/04/13 10:39:45;;;;;;;15.07;5.55;;;;;;;15.95;29.97;101790.16;4993908;28;20113;-60
2022/04/13 10:42:15;;;;;;;8.48;5.28;;;;;;;16.12;30.44;101787.31;4993712;28;20057;-60
2022/04/13 10:44:44;;;;;;;12.57;5.47;;;;;;;16.33;30.16;101782.66;4993719;28;20058;-60
2022/04/13 10:47:17;;;;;;;13.32;6.70;;;;;;;16.33;30.16;101780.03;4993883;28;20050;-60
2022/04/13 10:49:54;;;;;;;19.95;6.82;;;;;;;16.42;29.49;101786.88;4993549;28;20066;-61
2022/04/13 10:52:28;;;;;;;13.20;6.72;;;;;;;16.42;29.38;101787.72;4993599;28;20081;-60
2022/04/13 10:54:59;;;;;;;12.52;6.03;;;;;;;16.47;29.96;101792.88;4993823;28;20061;-60
2022/04/13 10:57:30;;;;;;;13.70;6.65;;;;;;;16.44;30.08;101784.22;4977980;28;20066;-60
2022/04/13 11:00:04;;;;;;;12.95;6.07;;;;;;;16.51;30.01;101783.22;4977889;28;20443;-61
2022/04/13 11:02:38;;;;;;;13.13;6.40;;;;;;;16.48;30.31;101789.38;4978029;28;20051;-61
2022/04/13 11:05:06;;;;;;;19.20;7.43;;;;;;;16.43;30.52;101780.75;4985227;28;20165;-60
2022/04/13 11:07:36;;;;;;;12.55;7.13;;;;;;;16.30;30.42;101798.38;4977908;28;20061;-60
2022/04/13 11:10:07;;;;;;;12.40;6.93;;;;;;;16.16;30.49;101784.66;4977758;28;20051;-60
2022/04/13 11:12:36;;;;;;;11.18;6.22;;;;;;;15.96;31.08;101782.31;4989012;28;20134;-60
2022/04/13 11:15:05;;;;;;;16.55;7.68;;;;;;;15.85;31.08;101772.88;4997163;28;20058;-60
2022/04/13 11:17:32;;;;;;;11.60;5.82;;;;;;;15.70;31.60;101773.97;4996828;28;20136;-60
2022/04/13 11:20:18;;;;;;;9.55;5.50;;;;;;;15.58;31.31;101774.94;4996973;28;20050;-60
2022/04/13 11:23:07;;;;;;;11.15;6.68;;;;;;;15.47;31.28;101771.56;4996967;28;20042;-60
2022/04/13 11:25:58;;;;;;;13.00;7.75;;;;;;;15.39;31.92;101771.66;4996911;28;20105;-58
2022/04/13 11:28:28;;;;;;;10.73;6.30;;;;;;;15.48;32.04;101762.84;4996701;28;20069;-59